Time;durP1;ratioP1;P1;durP2;ratioP2;P2;SDS_P1;SDS_P2;PMS_P1;PMS_P2;Temp;Humidity;BMP_temperature;BMP_pressure;BME280_temperature;BME280_humidity;BME280_pressure;Samples;Min_cycle;Max_cycle;Signal;HPM_P1;HPM_P2
2023/01/17 00:02:04;;;;;;;0.10;0.10;;;4.50;99.90;;;;;;5041789;28;20041;-83
2023/01/17 00:10:06;;;;;;;0.20;0.20;;;4.60;99.90;;;;;;5042052;28;20064;-83
2023/01/17 00:12:33;;;;;;;0.20;0.20;;;4.50;99.90;;;;;;5040206;28;20033;-83
2023/01/17 00:14:59;;;;;;;0.10;0.10;;;4.30;99.90;;;;;;5042012;28;20111;-82
2023/01/17 00:17:26;;;;;;;0.17;0.17;;;4.50;99.90;;;;;;5041321;28;20029;-82
2023/01/17 01:35:21;;;;;;;0.10;0.10;;;4.30;99.90;;;;;;5044613;28;20173;-84
2023/01/17 01:37:47;;;;;;;0.10;0.10;;;4.30;99.90;;;;;;5045075;28;20025;-83
2023/01/17 01:40:15;;;;;;;0.20;0.20;;;4.30;99.90;;;;;;5044604;28;20052;-83
2023/01/17 01:42:56;;;;;;;0.10;0.10;;;4.20;99.90;;;;;;5043399;28;20068;-83
2023/01/17 01:45:28;;;;;;;0.10;0.10;;;4.30;99.90;;;;;;5043973;28;20484;-83
2023/01/17 01:47:59;;;;;;;0.10;0.10;;;4.40;99.90;;;;;;5041224;28;20162;-83
2023/01/17 01:50:27;;;;;;;0.10;0.10;;;4.30;99.90;;;;;;5049505;28;20044;-83
2023/01/17 01:52:55;;;;;;;0.10;0.10;;;4.30;99.90;;;;;;5043934;28;20032;-84
2023/01/17 01:55:34;;;;;;;4.85;1.38;;;4.40;99.90;;;;;;5043040;28;20025;-83
2023/01/17 01:58:16;;;;;;;0.10;0.10;;;4.30;99.90;;;;;;5042089;28;20086;-84
2023/01/17 02:00:42;;;;;;;0.15;0.15;;;4.30;99.90;;;;;;5043349;28;20017;-85
2023/01/17 02:03:24;;;;;;;0.10;0.10;;;4.30;99.90;;;;;;5043492;28;20408;-85
2023/01/17 02:05:50;;;;;;;0.10;0.10;;;4.30;99.90;;;;;;5038438;28;20084;-84
2023/01/17 02:08:20;;;;;;;0.10;0.10;;;4.30;99.90;;;;;;5037959;28;20547;-84
2023/01/17 02:10:46;;;;;;;0.10;0.10;;;4.20;99.90;;;;;;5044707;28;20029;-84
2023/01/17 02:13:15;;;;;;;0.10;0.10;;;4.20;99.90;;;;;;5043255;28;20037;-85
2023/01/17 02:16:18;;;;;;;0.10;0.10;;;4.20;99.90;;;;;;5041586;28;20033;-84
2023/01/17 02:19:08;;;;;;;0.10;0.10;;;4.20;99.90;;;;;;5041299;28;20563;-84
2023/01/17 02:21:41;;;;;;;0.10;0.10;;;4.20;99.90;;;;;;5041190;28;20687;-84
2023/01/17 02:24:36;;;;;;;0.10;0.10;;;4.20;99.90;;;;;;5038969;28;20572;-84
2023/01/17 02:27:23;;;;;;;0.10;0.10;;;4.20;99.90;;;;;;5038826;28;20029;-85
2023/01/17 02:30:10;;;;;;;0.10;0.10;;;4.10;99.90;;;;;;5042633;28;20031;-85
2023/01/17 02:32:58;;;;;;;0.10;0.10;;;4.00;99.90;;;;;;5042749;28;20029;-85
2023/01/17 02:35:53;;;;;;;0.10;0.10;;;3.90;99.90;;;;;;5040905;28;20111;-85
2023/01/17 02:38:49;;;;;;;0.10;0.10;;;3.90;99.90;;;;;;5042196;28;20025;-85
2023/01/17 02:41:26;;;;;;;0.10;0.10;;;3.90;99.90;;;;;;5041217;28;20025;-84
2023/01/17 02:43:52;;;;;;;;;;;3.80;99.90;;;;;;5032261;28;20055;-85
2023/01/17 02:46:18;;;;;;;0.10;0.10;;;3.90;99.90;;;;;;5042671;28;19920;-84
2023/01/17 02:48:45;;;;;;;0.10;0.10;;;3.70;99.90;;;;;;5043365;28;20271;-82
2023/01/17 02:51:29;;;;;;;0.10;0.10;;;3.60;99.90;;;;;;5039206;28;20037;-84
2023/01/17 02:54:04;;;;;;;0.10;0.10;;;3.50;99.90;;;;;;5040721;28;20131;-82
2023/01/17 02:56:42;;;;;;;0.10;0.10;;;3.60;99.90;;;;;;5032271;28;20029;-82
2023/01/17 02:59:38;;;;;;;0.10;0.10;;;3.50;99.90;;;;;;5041645;28;20561;-83
2023/01/17 03:02:23;;;;;;;0.10;0.10;;;3.60;99.90;;;;;;5037175;28;20051;-84
2023/01/17 03:05:22;;;;;;;0.10;0.10;;;3.50;99.90;;;;;;5032927;28;20033;-83
2023/01/17 03:07:50;;;;;;;0.10;0.10;;;3.50;99.90;;;;;;5039923;28;20029;-82
2023/01/17 03:10:17;;;;;;;0.50;0.50;;;3.40;99.90;;;;;;5040359;28;20051;-82
2023/01/17 03:12:44;;;;;;;0.10;0.10;;;3.40;99.90;;;;;;5041666;28;20025;-82
2023/01/17 03:15:16;;;;;;;0.10;0.10;;;3.40;99.90;;;;;;5043240;28;20037;-82
2023/01/17 03:17:46;;;;;;;0.10;0.10;;;3.30;99.90;;;;;;5041895;28;20043;-84
2023/01/17 03:20:12;;;;;;;0.10;0.10;;;3.30;99.90;;;;;;5040646;28;20025;-83
2023/01/17 03:22:38;;;;;;;0.10;0.10;;;3.30;99.90;;;;;;5050289;28;20040;-84
2023/01/17 03:25:05;;;;;;;0.10;0.10;;;3.40;99.90;;;;;;5043167;28;20144;-83
2023/01/17 03:27:30;;;;;;;0.10;0.10;;;3.30;99.90;;;;;;5040083;28;20176;-84
2023/01/17 03:29:56;;;;;;;0.10;0.10;;;3.20;99.90;;;;;;5040639;28;20499;-83
2023/01/17 03:32:22;;;;;;;0.10;0.10;;;3.40;99.90;;;;;;5042237;28;20051;-83
2023/01/17 03:34:48;;;;;;;0.25;0.25;;;3.20;99.90;;;;;;5041409;28;20107;-82
2023/01/17 03:37:14;;;;;;;0.20;0.20;;;3.30;99.90;;;;;;5040324;28;20051;-82
2023/01/17 03:39:39;;;;;;;0.13;0.13;;;3.40;99.90;;;;;;5041689;28;20033;-84
2023/01/17 03:42:06;;;;;;;0.10;0.10;;;3.30;99.90;;;;;;5041421;28;20044;-82
2023/01/17 03:44:33;;;;;;;1.35;0.68;;;3.30;99.90;;;;;;5041683;28;20132;-82
2023/01/17 03:46:59;;;;;;;0.57;0.57;;;3.20;99.90;;;;;;5043154;28;20036;-83
2023/01/17 03:49:24;;;;;;;0.10;0.10;;;3.30;99.90;;;;;;5045766;28;20045;-83
2023/01/17 03:51:50;;;;;;;0.10;0.10;;;3.40;99.90;;;;;;5039578;28;20025;-83
2023/01/17 03:54:16;;;;;;;0.10;0.10;;;3.60;99.90;;;;;;5046478;28;20033;-81
2023/01/17 03:56:42;;;;;;;0.10;0.10;;;3.40;99.90;;;;;;5042494;28;20025;-81
2023/01/17 03:59:07;;;;;;;0.13;0.13;;;3.30;99.90;;;;;;5043826;28;20033;-81
2023/01/17 04:01:33;;;;;;;0.15;0.15;;;3.40;99.90;;;;;;5048057;28;20056;-81
2023/01/17 04:03:59;;;;;;;0.10;0.10;;;3.50;99.90;;;;;;5052430;28;20044;-82
2023/01/17 04:06:25;;;;;;;0.20;0.20;;;3.50;99.90;;;;;;5040623;28;20056;-81
2023/01/17 04:08:51;;;;;;;0.10;0.10;;;3.30;99.90;;;;;;5042663;28;20303;-81
2023/01/17 04:11:17;;;;;;;0.10;0.10;;;3.40;99.90;;;;;;5039877;28;20029;-84
2023/01/17 04:13:43;;;;;;;0.10;0.10;;;3.50;99.90;;;;;;5039456;28;20038;-83
2023/01/17 04:16:15;;;;;;;0.10;0.10;;;3.40;99.90;;;;;;5033970;28;20552;-84
2023/01/17 04:18:41;;;;;;;0.10;0.10;;;3.30;99.90;;;;;;5042891;28;20029;-82
2023/01/17 04:21:07;;;;;;;0.10;0.10;;;3.40;99.90;;;;;;5044984;28;20025;-83
2023/01/17 04:23:33;;;;;;;0.10;0.10;;;3.40;99.90;;;;;;5045042;28;20478;-82
2023/01/17 04:25:58;;;;;;;0.10;0.10;;;3.30;99.90;;;;;;5044886;28;20021;-83
2023/01/17 04:28:24;;;;;;;0.10;0.10;;;3.40;99.90;;;;;;5044876;28;20029;-82
2023/01/17 04:30:50;;;;;;;0.10;0.10;;;3.30;99.90;;;;;;5045235;28;20466;-83
2023/01/17 04:33:16;;;;;;;0.10;0.10;;;3.40;99.90;;;;;;5043067;28;20557;-82
2023/01/17 04:35:42;;;;;;;0.10;0.10;;;3.40;99.90;;;;;;5045101;28;20449;-81
2023/01/17 04:38:08;;;;;;;0.10;0.10;;;3.40;99.90;;;;;;5044776;28;20025;-81
2023/01/17 04:40:33;;;;;;;0.10;0.10;;;3.40;99.90;;;;;;5044932;28;21504;-81
2023/01/17 04:42:59;;;;;;;0.10;0.10;;;3.50;99.90;;;;;;5043771;28;20067;-82
2023/01/17 04:45:25;;;;;;;0.10;0.10;;;3.40;99.90;;;;;;5049705;28;20390;-82
2023/01/17 04:47:51;;;;;;;0.20;0.20;;;3.30;99.90;;;;;;5043084;28;20120;-82
2023/01/17 04:50:17;;;;;;;0.10;0.10;;;3.40;99.90;;;;;;5044367;28;20037;-80
2023/01/17 04:52:43;;;;;;;0.10;0.10;;;3.30;99.90;;;;;;5044127;28;20031;-82
2023/01/17 04:55:08;;;;;;;0.10;0.10;;;3.50;99.90;;;;;;5044815;28;20029;-85
2023/01/17 04:57:34;;;;;;;0.10;0.10;;;3.50;99.90;;;;;;5044553;28;20078;-84
2023/01/17 05:00:00;;;;;;;0.55;0.30;;;3.40;99.90;;;;;;5047688;28;20055;-85
2023/01/17 05:02:25;;;;;;;0.10;0.10;;;3.40;99.90;;;;;;5044478;28;20059;-84
2023/01/17 05:04:51;;;;;;;0.10;0.10;;;3.20;99.90;;;;;;5044426;28;20163;-84
2023/01/17 05:07:17;;;;;;;0.10;0.10;;;3.30;99.90;;;;;;5037060;28;20036;-83
2023/01/17 05:09:43;;;;;;;0.10;0.10;;;3.40;99.90;;;;;;5044351;28;20064;-82
2023/01/17 05:12:09;;;;;;;0.10;0.10;;;3.60;99.90;;;;;;5044289;28;20033;-82
2023/01/17 05:14:34;;;;;;;0.10;0.10;;;3.50;99.90;;;;;;5044253;28;20625;-81
2023/01/17 05:17:01;;;;;;;0.10;0.10;;;3.50;99.90;;;;;;5056592;28;20147;-83
2023/01/17 05:19:28;;;;;;;0.10;0.10;;;3.60;99.90;;;;;;5043514;28;20056;-82
2023/01/17 05:21:53;;;;;;;0.10;0.10;;;3.60;99.90;;;;;;5043775;28;20559;-82
2023/01/17 05:24:20;;;;;;;0.10;0.10;;;3.60;99.90;;;;;;5044215;28;20028;-81
2023/01/17 05:26:53;;;;;;;0.10;0.10;;;3.70;99.90;;;;;;5043564;28;20021;-84
2023/01/17 05:29:19;;;;;;;0.10;0.10;;;3.60;99.90;;;;;;5041578;28;20075;-83
2023/01/17 05:31:45;;;;;;;0.32;0.32;;;3.70;99.90;;;;;;5043649;28;20110;-83
2023/01/17 05:34:11;;;;;;;0.10;0.10;;;3.80;99.90;;;;;;5043776;28;20045;-84
2023/01/17 05:36:37;;;;;;;0.30;0.30;;;3.70;99.90;;;;;;5043786;28;20032;-85
2023/01/17 05:39:02;;;;;;;0.55;0.55;;;3.70;99.90;;;;;;5044281;28;20033;-85
2023/01/17 05:41:28;;;;;;;0.30;0.30;;;3.70;99.90;;;;;;5043373;28;20037;-81
2023/01/17 05:43:54;;;;;;;0.10;0.10;;;3.70;99.90;;;;;;5043158;28;20041;-81
2023/01/17 05:46:19;;;;;;;0.45;0.45;;;3.70;99.90;;;;;;5043741;28;20559;-81
2023/01/17 05:48:45;;;;;;;0.10;0.10;;;3.80;99.90;;;;;;5042021;28;20612;-82
2023/01/17 05:51:11;;;;;;;0.70;0.38;;;3.80;99.90;;;;;;5041079;28;20025;-85
2023/01/17 05:53:36;;;;;;;0.10;0.10;;;3.80;99.90;;;;;;5044166;28;20036;-84
2023/01/17 05:56:02;;;;;;;0.10;0.10;;;3.80;99.90;;;;;;5044470;28;20875;-84
2023/01/17 05:58:28;;;;;;;0.47;0.47;;;3.80;99.90;;;;;;5056011;28;20036;-85
2023/01/17 06:00:54;;;;;;;0.10;0.10;;;3.90;99.90;;;;;;5043745;28;20392;-85
2023/01/17 06:03:20;;;;;;;0.10;0.10;;;3.90;99.90;;;;;;5041227;28;20041;-85
2023/01/17 06:05:46;;;;;;;0.22;0.22;;;4.00;99.90;;;;;;5042097;28;20029;-84
2023/01/17 06:08:12;;;;;;;4.50;2.08;;;4.00;99.90;;;;;;5041447;28;20057;-84
2023/01/17 06:10:37;;;;;;;0.20;0.20;;;4.00;99.90;;;;;;5042803;28;20451;-83
2023/01/17 06:13:12;;;;;;;0.60;0.60;;;4.00;99.90;;;;;;5056355;28;20033;-83
2023/01/17 06:15:38;;;;;;;0.30;0.30;;;4.10;99.90;;;;;;5041569;28;20025;-84
2023/01/17 06:18:12;;;;;;;0.20;0.20;;;4.00;99.90;;;;;;5041604;28;20028;-82
2023/01/17 06:20:38;;;;;;;0.10;0.10;;;4.20;99.90;;;;;;5039660;28;20029;-83
2023/01/17 06:23:06;;;;;;;0.20;0.20;;;4.10;99.90;;;;;;5043352;28;20071;-84
2023/01/17 06:25:43;;;;;;;0.10;0.10;;;4.10;99.90;;;;;;5043280;28;20551;-84
2023/01/17 06:28:10;;;;;;;0.10;0.10;;;4.10;99.90;;;;;;5039878;28;20380;-84
2023/01/17 06:30:36;;;;;;;0.10;0.10;;;4.20;99.90;;;;;;5041862;28;20029;-86
2023/01/17 06:33:03;;;;;;;0.38;0.38;;;4.20;99.90;;;;;;5041596;28;20448;-87
2023/01/17 06:35:29;;;;;;;;;;;4.30;99.90;;;;;;5038311;28;20029;-86
2023/01/17 06:37:56;;;;;;;0.10;0.10;;;4.20;99.90;;;;;;5031960;28;19919;-87
2023/01/17 06:40:25;;;;;;;0.10;0.10;;;4.30;99.90;;;;;;5029939;28;20024;-86
2023/01/17 06:42:51;;;;;;;0.15;0.15;;;4.30;99.90;;;;;;5038003;28;20037;-88
2023/01/17 06:45:17;;;;;;;0.10;0.10;;;4.30;99.90;;;;;;5039612;28;20212;-89
2023/01/17 06:47:43;;;;;;;0.10;0.10;;;4.40;99.90;;;;;;5041999;28;20033;-89
2023/01/17 06:50:15;;;;;;;0.83;0.83;;;4.40;99.90;;;;;;5038164;28;20060;-89
2023/01/17 06:52:41;;;;;;;2.22;1.45;;;4.40;99.90;;;;;;5044052;28;20083;-88
2023/01/17 06:55:08;;;;;;;0.20;0.20;;;4.40;99.90;;;;;;5052651;28;20618;-87
2023/01/17 06:57:34;;;;;;;;;;;4.50;99.90;;;;;;5042791;28;20614;-87
2023/01/17 07:00:00;;;;;;;0.40;0.40;;;4.50;99.90;;;;;;5041443;28;19919;-86
2023/01/17 07:02:25;;;;;;;0.10;0.10;;;4.50;99.90;;;;;;5043230;28;20040;-89
2023/01/17 07:04:51;;;;;;;0.60;0.50;;;4.50;99.90;;;;;;5030112;28;20868;-88
2023/01/17 07:07:17;;;;;;;0.52;0.52;;;4.50;99.90;;;;;;5042490;28;20028;-84
2023/01/17 07:09:43;;;;;;;0.10;0.10;;;4.50;99.90;;;;;;5047323;28;21152;-85
2023/01/17 07:12:09;;;;;;;0.10;0.10;;;4.40;99.90;;;;;;5048793;28;20407;-87
2023/01/17 07:14:34;;;;;;;0.10;0.10;;;4.40;99.90;;;;;;5039237;28;20025;-87
2023/01/17 07:17:00;;;;;;;0.63;0.60;;;4.30;99.90;;;;;;5041222;28;20024;-86
2023/01/17 07:19:26;;;;;;;2.67;1.80;;;4.40;99.90;;;;;;5042777;28;20032;-89
2023/01/17 07:21:53;;;;;;;0.40;0.40;;;4.50;99.90;;;;;;5042637;28;20047;-85
2023/01/17 07:24:20;;;;;;;0.10;0.10;;;4.60;99.90;;;;;;5036795;28;20037;-86
2023/01/17 07:26:49;;;;;;;;;;;4.50;99.90;;;;;;5023973;28;20508;-86
2023/01/17 07:29:15;;;;;;;0.10;0.10;;;4.40;99.90;;;;;;5039222;28;19917;-86
2023/01/17 07:31:40;;;;;;;0.20;0.20;;;4.40;99.90;;;;;;5042479;28;20542;-85
2023/01/17 07:34:06;;;;;;;0.20;0.20;;;4.50;99.90;;;;;;5042564;28;20029;-86
2023/01/17 07:36:32;;;;;;;0.25;0.25;;;4.40;99.90;;;;;;5038448;28;20457;-86
2023/01/17 07:38:58;;;;;;;0.10;0.10;;;4.50;99.90;;;;;;5038608;28;20035;-85
2023/01/17 07:41:24;;;;;;;0.20;0.20;;;4.50;99.90;;;;;;5036861;28;20026;-86
2023/01/17 07:43:49;;;;;;;0.10;0.10;;;4.50;99.90;;;;;;5046205;28;20037;-85
2023/01/17 07:46:15;;;;;;;0.20;0.20;;;4.50;99.90;;;;;;5042440;28;20031;-87
2023/01/17 07:48:41;;;;;;;0.50;0.50;;;4.50;99.90;;;;;;5032587;28;20207;-86
2023/01/17 07:51:08;;;;;;;0.13;0.13;;;4.50;99.90;;;;;;5048751;28;20126;-86
2023/01/17 07:53:35;;;;;;;0.10;0.10;;;4.50;99.90;;;;;;5044042;28;20047;-85
2023/01/17 07:56:03;;;;;;;2.63;0.95;;;4.50;99.90;;;;;;5047026;28;20487;-87
2023/01/17 07:58:29;;;;;;;0.10;0.10;;;4.50;99.90;;;;;;5046086;28;20025;-85
2023/01/17 08:01:04;;;;;;;0.10;0.10;;;4.50;99.90;;;;;;5042461;28;20496;-87
2023/01/17 08:03:33;;;;;;;0.30;0.30;;;4.50;99.90;;;;;;5044727;28;20076;-85
2023/01/17 08:06:00;;;;;;;0.25;0.25;;;4.40;99.90;;;;;;5039623;28;20052;-86
2023/01/17 08:08:27;;;;;;;0.10;0.10;;;4.50;99.90;;;;;;5038050;28;20056;-86
2023/01/17 08:10:52;;;;;;;0.10;0.10;;;4.50;99.90;;;;;;5061527;28;20550;-85
2023/01/17 08:13:22;;;;;;;0.10;0.10;;;4.60;99.90;;;;;;5046365;28;20128;-85
2023/01/17 08:15:48;;;;;;;0.10;0.10;;;4.60;99.90;;;;;;5045629;28;20025;-86
2023/01/17 08:18:14;;;;;;;0.52;0.52;;;4.70;99.90;;;;;;5045703;28;20029;-86
2023/01/17 08:20:44;;;;;;;0.10;0.10;;;4.70;99.90;;;;;;5045731;28;20031;-86
2023/01/17 08:23:11;;;;;;;0.13;0.13;;;4.70;99.90;;;;;;5046148;28;20128;-86
2023/01/17 08:25:37;;;;;;;20.73;1.55;;;4.70;99.90;;;;;;5045694;28;20032;-85
2023/01/17 08:28:03;;;;;;;0.30;0.30;;;4.70;99.90;;;;;;5045826;28;20090;-85
2023/01/17 08:30:29;;;;;;;0.10;0.10;;;4.80;99.90;;;;;;5046151;28;20025;-85
2023/01/17 08:32:55;;;;;;;0.10;0.10;;;4.80;99.90;;;;;;5045795;28;20835;-86
2023/01/17 08:35:21;;;;;;;0.30;0.30;;;4.80;99.90;;;;;;5046247;28;20141;-86
2023/01/17 08:37:47;;;;;;;0.10;0.10;;;4.70;99.90;;;;;;5043998;28;20040;-86
2023/01/17 08:40:16;;;;;;;0.10;0.10;;;4.60;99.90;;;;;;5044106;28;20450;-86
2023/01/17 08:42:43;;;;;;;5.10;1.52;;;4.60;99.90;;;;;;5052163;28;20727;-86
2023/01/17 08:45:10;;;;;;;0.10;0.10;;;4.90;99.90;;;;;;5044811;28;20521;-86
2023/01/17 08:47:36;;;;;;;0.10;0.10;;;4.70;99.90;;;;;;5045187;28;20496;-86
2023/01/17 08:50:05;;;;;;;0.13;0.13;;;4.80;99.90;;;;;;5045223;28;20029;-85
2023/01/17 08:52:32;;;;;;;0.10;0.10;;;4.90;99.90;;;;;;5044971;28;20033;-85
2023/01/17 08:54:58;;;;;;;0.10;0.10;;;4.80;99.90;;;;;;5045337;28;20021;-86
2023/01/17 08:57:23;;;;;;;0.10;0.10;;;4.90;99.90;;;;;;5045160;28;20036;-85
2023/01/17 08:59:49;;;;;;;0.10;0.10;;;4.90;99.90;;;;;;5048064;28;20506;-85
2023/01/17 09:02:18;;;;;;;0.10;0.10;;;5.00;99.90;;;;;;5044750;28;20071;-85
2023/01/17 09:04:48;;;;;;;0.30;0.30;;;4.90;99.90;;;;;;5044645;28;20017;-85
2023/01/17 09:07:18;;;;;;;0.10;0.10;;;4.90;99.90;;;;;;5044831;28;20098;-86
2023/01/17 09:09:44;;;;;;;0.10;0.10;;;4.90;99.90;;;;;;5039764;28;20057;-85
2023/01/17 09:12:10;;;;;;;0.47;0.47;;;5.00;99.90;;;;;;5044235;28;20021;-85
2023/01/17 09:14:36;;;;;;;0.10;0.10;;;5.00;99.90;;;;;;5044908;28;20036;-86
2023/01/17 09:17:05;;;;;;;0.10;0.10;;;5.00;99.90;;;;;;5044588;28;20057;-86
2023/01/17 09:19:31;;;;;;;0.10;0.10;;;4.90;99.90;;;;;;5034152;28;20024;-86
2023/01/17 09:21:57;;;;;;;0.20;0.20;;;5.00;99.90;;;;;;5044541;28;20025;-86
2023/01/17 09:24:23;;;;;;;0.40;0.40;;;4.90;99.90;;;;;;5044612;28;20053;-86
2023/01/17 09:26:49;;;;;;;0.10;0.10;;;4.90;99.90;;;;;;5044367;28;20043;-85
2023/01/17 09:29:16;;;;;;;0.20;0.20;;;4.90;99.90;;;;;;5044979;28;20028;-85
2023/01/17 09:31:45;;;;;;;0.15;0.15;;;5.00;99.90;;;;;;5044335;28;20096;-87
2023/01/17 09:34:11;;;;;;;0.20;0.20;;;5.10;99.90;;;;;;5036316;28;20059;-85
2023/01/17 09:36:37;;;;;;;0.30;0.30;;;5.20;99.90;;;;;;5044549;28;20840;-87
2023/01/17 09:39:03;;;;;;;0.20;0.20;;;5.10;99.90;;;;;;5044374;28;20029;-85
2023/01/17 09:41:57;;;;;;;0.20;0.20;;;5.10;99.90;;;;;;5043615;28;20044;-86
2023/01/17 09:44:39;;;;;;;0.10;0.10;;;5.10;99.90;;;;;;5039596;28;20041;-85
2023/01/17 09:47:31;;;;;;;0.57;0.57;;;5.20;99.90;;;;;;5042673;28;20091;-85
2023/01/17 09:50:06;;;;;;;0.10;0.10;;;5.40;99.90;;;;;;5041231;28;20029;-85
2023/01/17 09:52:32;;;;;;;0.52;0.52;;;5.40;99.90;;;;;;5043799;28;20033;-86
2023/01/17 09:54:58;;;;;;;0.35;0.35;;;5.40;99.90;;;;;;5044105;28;20048;-86
2023/01/17 09:57:42;;;;;;;0.20;0.20;;;5.30;99.90;;;;;;5043500;28;20064;-86
2023/01/17 10:00:08;;;;;;;0.30;0.30;;;5.40;99.90;;;;;;5044257;28;20024;-86
2023/01/17 10:02:52;;;;;;;1.75;0.63;;;5.50;99.90;;;;;;5043152;28;20108;-85
2023/01/17 10:05:37;;;;;;;0.10;0.10;;;5.50;99.90;;;;;;5043820;28;20029;-86
2023/01/17 10:08:21;;;;;;;0.10;0.10;;;5.70;99.90;;;;;;5043522;28;20029;-85
2023/01/17 10:11:17;;;;;;;0.10;0.10;;;5.60;99.90;;;;;;5042733;28;20407;-86
2023/01/17 10:13:46;;;;;;;;;;;5.60;99.90;;;;;;5043735;28;20237;-86
2023/01/17 10:16:34;;;;;;;0.20;0.20;;;5.50;99.90;;;;;;5041303;28;20359;-86
2023/01/17 10:19:25;;;;;;;0.17;0.17;;;5.60;99.90;;;;;;5043208;28;20506;-87
2023/01/17 10:21:57;;;;;;;0.65;0.47;;;5.80;99.90;;;;;;5043108;28;20028;-86
2023/01/17 10:24:34;;;;;;;0.20;0.20;;;5.80;99.90;;;;;;5043120;28;20123;-85
2023/01/17 10:27:02;;;;;;;0.13;0.13;;;5.90;99.90;;;;;;5039157;28;20082;-86
2023/01/17 10:29:31;;;;;;;0.10;0.10;;;5.70;99.90;;;;;;5043391;28;20066;-85
2023/01/17 10:31:59;;;;;;;0.28;0.28;;;5.60;99.90;;;;;;5043201;28;20036;-87
2023/01/17 10:34:35;;;;;;;0.10;0.10;;;5.50;99.90;;;;;;5042981;28;20021;-86
2023/01/17 10:37:22;;;;;;;0.82;0.82;;;5.50;99.90;;;;;;5038442;28;20032;-86
2023/01/17 10:39:49;;;;;;;0.10;0.10;;;5.30;99.90;;;;;;5043194;28;20037;-86
2023/01/17 10:42:14;;;;;;;;;;;5.20;99.90;;;;;;5042895;28;20361;-85
2023/01/17 10:44:49;;;;;;;0.10;0.10;;;5.10;99.90;;;;;;5044363;28;19924;-86
2023/01/17 10:47:21;;;;;;;1.50;0.82;;;5.00;99.90;;;;;;5041387;28;20029;-85
2023/01/17 10:49:57;;;;;;;0.50;0.43;;;5.00;99.90;;;;;;5042944;28;20025;-85
2023/01/17 10:52:29;;;;;;;0.10;0.10;;;4.90;99.90;;;;;;5041340;28;20489;-85
2023/01/17 10:55:07;;;;;;;0.40;0.40;;;4.80;99.90;;;;;;5043048;28;20036;-85
2023/01/17 10:57:47;;;;;;;0.10;0.10;;;4.80;99.90;;;;;;5042954;28;20025;-86
2023/01/17 11:00:38;;;;;;;0.35;0.35;;;4.60;99.90;;;;;;5040354;28;20082;-85
2023/01/17 11:03:05;;;;;;;0.10;0.10;;;4.60;99.90;;;;;;5045374;28;20712;-86
2023/01/17 11:05:32;;;;;;;0.30;0.30;;;4.60;99.90;;;;;;5038322;28;20033;-87
2023/01/17 11:08:07;;;;;;;0.17;0.17;;;4.70;99.90;;;;;;5042400;28;20025;-85
2023/01/17 11:10:48;;;;;;;0.10;0.10;;;4.70;99.90;;;;;;5039091;28;20025;-85
2023/01/17 11:13:20;;;;;;;0.10;0.10;;;4.70;99.90;;;;;;5057419;28;20646;-86
2023/01/17 11:15:48;;;;;;;0.10;0.10;;;4.70;99.90;;;;;;5057119;28;20033;-86
2023/01/17 11:18:17;;;;;;;0.17;0.17;;;4.80;99.90;;;;;;5042167;28;20078;-86
2023/01/17 11:20:43;;;;;;;0.10;0.10;;;5.00;99.90;;;;;;5042113;28;20867;-85
2023/01/17 11:23:34;;;;;;;0.20;0.20;;;5.10;99.90;;;;;;5042238;28;20059;-86
2023/01/17 11:26:02;;;;;;;0.10;0.10;;;5.20;99.90;;;;;;5039252;28;20114;-87
2023/01/17 11:28:34;;;;;;;0.10;0.10;;;5.80;99.90;;;;;;5040933;28;20032;-85
2023/01/17 11:31:08;;;;;;;0.10;0.10;;;5.90;99.90;;;;;;5036314;28;20145;-86
2023/01/17 11:33:44;;;;;;;0.10;0.10;;;5.90;99.90;;;;;;5051127;28;20059;-85
2023/01/17 11:36:28;;;;;;;0.20;0.20;;;5.70;99.90;;;;;;5040096;28;20025;-87
2023/01/17 11:39:03;;;;;;;0.10;0.10;;;5.50;99.90;;;;;;5039922;28;20025;-86
2023/01/17 11:41:37;;;;;;;0.10;0.10;;;5.40;99.90;;;;;;5041614;28;20036;-85
2023/01/17 11:44:18;;;;;;;0.20;0.20;;;5.30;99.90;;;;;;5041833;28;20132;-85
2023/01/17 11:46:44;;;;;;;0.10;0.10;;;5.50;99.90;;;;;;5041015;28;20022;-86
2023/01/17 11:49:22;;;;;;;0.10;0.10;;;5.80;99.90;;;;;;5043394;28;20044;-85
2023/01/17 11:51:47;;;;;;;1.13;1.13;;;6.10;99.90;;;;;;5040068;28;20013;-86
2023/01/17 11:54:32;;;;;;;0.13;0.13;;;6.00;99.90;;;;;;5042270;28;20060;-85
2023/01/17 11:57:01;;;;;;;0.10;0.10;;;5.80;99.90;;;;;;5042037;28;20053;-85
2023/01/17 11:59:41;;;;;;;0.22;0.22;;;5.70;99.90;;;;;;5043924;28;20112;-85
2023/01/17 12:02:49;;;;;;;0.20;0.20;;;5.20;99.90;;;;;;5042095;28;20410;-86
2023/01/17 12:05:40;;;;;;;0.10;0.10;;;5.40;99.90;;;;;;5028761;28;20049;-85
2023/01/17 12:08:33;;;;;;;0.20;0.20;;;5.50;99.90;;;;;;5036559;28;20404;-86
2023/01/17 12:11:09;;;;;;;0.10;0.10;;;5.40;99.90;;;;;;5041554;28;20040;-86
2023/01/17 12:14:13;;;;;;;0.75;0.60;;;5.00;99.90;;;;;;5035053;28;20432;-87
2023/01/17 12:16:54;;;;;;;0.10;0.10;;;5.10;99.90;;;;;;5041114;28;20304;-85
2023/01/17 12:19:50;;;;;;;0.25;0.25;;;5.30;99.90;;;;;;5041859;28;20033;-85
2023/01/17 12:22:41;;;;;;;0.10;0.10;;;4.90;99.90;;;;;;5041999;28;20377;-86
2023/01/17 12:25:25;;;;;;;0.10;0.10;;;4.90;99.90;;;;;;5041212;28;20563;-85
2023/01/17 12:28:15;;;;;;;0.10;0.10;;;4.60;99.90;;;;;;5041711;28;20032;-86
2023/01/17 12:31:03;;;;;;;0.10;0.10;;;4.60;99.90;;;;;;5035202;28;20501;-86
2023/01/17 12:33:59;;;;;;;0.20;0.20;;;4.60;99.90;;;;;;5024885;28;20117;-85
2023/01/17 12:36:54;;;;;;;0.10;0.10;;;4.70;99.90;;;;;;5040299;28;20099;-86
2023/01/17 12:39:26;;;;;;;0.10;0.10;;;4.80;99.90;;;;;;5039446;28;20040;-85
2023/01/17 12:42:24;;;;;;;0.10;0.10;;;4.60;99.90;;;;;;5036369;28;20025;-86
2023/01/17 12:45:00;;;;;;;0.10;0.10;;;4.80;99.90;;;;;;5044423;28;20060;-85
2023/01/17 12:47:26;;;;;;;0.10;0.10;;;4.50;99.90;;;;;;5043206;28;20025;-86
2023/01/17 12:50:01;;;;;;;0.10;0.10;;;4.50;99.90;;;;;;5045365;28;20479;-86
2023/01/17 12:52:27;;;;;;;0.10;0.10;;;4.60;99.90;;;;;;5057712;28;20029;-85
2023/01/17 12:54:59;;;;;;;0.20;0.20;;;4.70;99.90;;;;;;5045646;28;20079;-83
2023/01/17 12:57:32;;;;;;;0.10;0.10;;;4.60;99.90;;;;;;5044860;28;20061;-86
2023/01/17 13:00:05;;;;;;;0.28;0.28;;;4.80;99.90;;;;;;5051174;28;20017;-86
2023/01/17 13:03:02;;;;;;;0.10;0.10;;;4.80;99.90;;;;;;5046183;28;20516;-86
2023/01/17 13:05:41;;;;;;;0.10;0.10;;;4.80;99.90;;;;;;5045246;28;20025;-85
2023/01/17 13:08:34;;;;;;;0.10;0.10;;;5.00;99.90;;;;;;5045059;28;20033;-85
2023/01/17 13:11:17;;;;;;;0.22;0.22;;;4.90;99.90;;;;;;5044273;28;20028;-88
2023/01/17 13:13:43;;;;;;;0.80;0.47;;;4.90;99.90;;;;;;5039162;28;20021;-85
2023/01/17 13:16:22;;;;;;;0.20;0.20;;;5.00;99.90;;;;;;5045226;28;20074;-85
2023/01/17 13:18:49;;;;;;;0.15;0.15;;;5.10;99.90;;;;;;5044899;28;20025;-85
2023/01/17 13:21:34;;;;;;;0.10;0.10;;;5.10;99.90;;;;;;5044968;28;20028;-87
2023/01/17 13:24:17;;;;;;;0.10;0.10;;;5.10;99.90;;;;;;5042612;28;20037;-85
2023/01/17 13:26:55;;;;;;;0.10;0.10;;;5.10;99.90;;;;;;5046224;28;20061;-86
2023/01/17 13:29:45;;;;;;;0.20;0.20;;;5.10;99.90;;;;;;5038346;28;20086;-87
2023/01/17 13:32:38;;;;;;;0.10;0.10;;;5.10;99.90;;;;;;5040820;28;20651;-85
2023/01/17 13:35:11;;;;;;;0.20;0.20;;;5.30;99.90;;;;;;5044310;28;20017;-86
2023/01/17 13:37:51;;;;;;;1.75;0.75;;;5.40;99.90;;;;;;5038551;28;20861;-86
2023/01/17 13:40:44;;;;;;;0.20;0.20;;;5.30;99.90;;;;;;5040223;28;20017;-86
2023/01/17 13:43:25;;;;;;;0.10;0.10;;;4.90;99.90;;;;;;5043997;28;20040;-85
2023/01/17 13:45:53;;;;;;;0.10;0.10;;;4.80;99.90;;;;;;5039233;28;20025;-87
2023/01/17 13:48:19;;;;;;;0.10;0.10;;;4.60;99.90;;;;;;5043979;28;20036;-86
2023/01/17 13:51:22;;;;;;;0.10;0.10;;;4.50;99.90;;;;;;5042533;28;20821;-86
2023/01/17 13:53:47;;;;;;;0.10;0.10;;;4.30;99.90;;;;;;5040396;28;20045;-85
2023/01/17 13:56:29;;;;;;;0.10;0.10;;;4.10;99.90;;;;;;5044237;28;20025;-85
2023/01/17 13:59:00;;;;;;;0.10;0.10;;;3.80;99.90;;;;;;5038233;28;20516;-87
2023/01/17 14:01:38;;;;;;;0.10;0.10;;;3.90;99.90;;;;;;5043786;28;20029;-85
2023/01/17 14:04:03;;;;;;;0.40;0.40;;;3.80;99.90;;;;;;5044770;28;20056;-85
2023/01/17 14:06:36;;;;;;;0.10;0.10;;;3.90;99.90;;;;;;5039055;28;20017;-85
2023/01/17 14:09:07;;;;;;;0.10;0.10;;;3.90;99.90;;;;;;5044099;28;20057;-85
2023/01/17 14:12:13;;;;;;;0.10;0.10;;;4.20;99.90;;;;;;5046300;28;20147;-84
2023/01/17 14:14:39;;;;;;;0.10;0.10;;;4.10;99.90;;;;;;5030770;28;20041;-84
2023/01/17 14:17:46;;;;;;;0.10;0.10;;;4.10;99.90;;;;;;5043791;28;20788;-84
2023/01/17 14:20:11;;;;;;;0.10;0.10;;;4.10;99.90;;;;;;5038010;28;20043;-83
2023/01/17 14:22:46;;;;;;;0.30;0.30;;;3.90;99.90;;;;;;5044035;28;20025;-84
2023/01/17 14:25:13;;;;;;;0.10;0.10;;;3.90;99.90;;;;;;5047694;28;20091;-84
2023/01/17 14:27:42;;;;;;;0.30;0.30;;;3.90;99.90;;;;;;5039289;28;20480;-84
2023/01/17 14:30:33;;;;;;;0.10;0.10;;;3.80;99.90;;;;;;5037942;28;20515;-85
2023/01/17 14:32:59;;;;;;;0.10;0.10;;;4.00;99.90;;;;;;5037931;28;20021;-84
2023/01/17 14:35:35;;;;;;;0.10;0.10;;;4.00;99.90;;;;;;5043336;28;20040;-83
2023/01/17 14:38:01;;;;;;;0.10;0.10;;;4.00;99.90;;;;;;5041317;28;20028;-84
2023/01/17 14:40:31;;;;;;;0.10;0.10;;;4.00;99.90;;;;;;5042987;28;20029;-84
2023/01/17 14:42:59;;;;;;;0.10;0.10;;;4.00;99.90;;;;;;5042339;28;20040;-83
2023/01/17 14:45:28;;;;;;;0.10;0.10;;;4.10;99.90;;;;;;5042695;28;20020;-85